createdAt,value
2019-01-27T00:01:32.374Z,2.32
2019-01-27T00:04:02.629Z,2.35
2019-01-27T00:06:32.752Z,2.36
2019-01-27T00:09:04.910Z,2.36
2019-01-27T00:11:35.924Z,2.36
2019-01-27T00:14:06.906Z,2.37
2019-01-27T00:16:37.459Z,2.30
2019-01-27T00:19:08.174Z,2.30
2019-01-27T00:21:38.540Z,2.34
2019-01-27T00:24:10.185Z,2.28
2019-01-27T00:26:40.344Z,2.26
2019-01-27T00:29:10.894Z,2.32
2019-01-27T00:31:41.568Z,2.37
2019-01-27T00:34:11.597Z,2.33
2019-01-27T00:36:41.878Z,2.37
2019-01-27T00:39:12.794Z,2.30
2019-01-27T00:41:43.324Z,2.36
2019-01-27T00:44:14.648Z,2.37
2019-01-27T00:46:45.179Z,2.34
2019-01-27T00:49:15.537Z,2.37
2019-01-27T00:51:45.682Z,2.42
2019-01-27T00:54:16.168Z,2.37
2019-01-27T00:56:46.373Z,2.41
2019-01-27T00:59:16.574Z,2.45
2019-01-27T01:01:46.820Z,2.48
2019-01-27T01:04:17.126Z,2.44
2019-01-27T01:06:47.808Z,2.50
2019-01-27T01:09:18.366Z,2.51
2019-01-27T01:11:48.690Z,2.51
2019-01-27T01:14:19.118Z,2.48
2019-01-27T01:16:49.457Z,2.40
2019-01-27T01:19:19.723Z,2.46
2019-01-27T01:21:50.418Z,2.54
2019-01-27T01:24:20.846Z,2.50
2019-01-27T01:26:51.416Z,2.55
2019-01-27T01:29:21.560Z,2.54
2019-01-27T01:31:51.877Z,2.57
2019-01-27T01:34:22.370Z,2.59
2019-01-27T01:36:52.767Z,2.61
2019-01-27T01:39:28.870Z,2.57
2019-01-27T01:41:59.453Z,2.65
2019-01-27T01:44:30.095Z,2.61
2019-01-27T01:47:00.574Z,2.63
2019-01-27T01:49:30.926Z,2.66
2019-01-27T01:52:01.390Z,2.65
2019-01-27T01:54:31.976Z,2.64
2019-01-27T01:57:02.907Z,2.62
2019-01-27T01:59:33.247Z,2.68
2019-01-27T02:02:03.850Z,2.68
2019-01-27T02:04:34.332Z,2.70
2019-01-27T02:07:04.578Z,2.72
2019-01-27T02:09:35.000Z,2.70
2019-01-27T02:12:05.456Z,2.73
2019-01-27T02:14:36.014Z,2.72
2019-01-27T02:17:06.432Z,2.73
2019-01-27T02:19:36.579Z,2.67
2019-01-27T02:22:07.515Z,2.67
2019-01-27T02:24:38.679Z,2.71
2019-01-27T02:27:08.956Z,2.68
2019-01-27T02:29:39.227Z,2.66
2019-01-27T02:32:09.663Z,2.72
2019-01-27T02:34:39.919Z,2.76
2019-01-27T02:37:10.565Z,2.82
2019-01-27T02:39:40.856Z,2.75
2019-01-27T02:42:11.682Z,2.74
2019-01-27T02:44:42.085Z,2.75
2019-01-27T02:47:12.518Z,2.79
2019-01-27T02:49:42.741Z,2.80
2019-01-27T02:52:13.280Z,2.85
2019-01-27T02:54:43.654Z,2.82
2019-01-27T02:57:14.124Z,2.83
2019-01-27T02:59:45.624Z,2.84
2019-01-27T03:02:16.190Z,2.82
2019-01-27T03:04:46.411Z,2.80
2019-01-27T03:07:26.299Z,2.83
2019-01-27T03:09:56.536Z,2.78
2019-01-27T03:12:38.093Z,2.79
2019-01-27T03:15:09.133Z,2.78
2019-01-27T03:17:39.572Z,2.85
2019-01-27T03:20:11.192Z,2.83
2019-01-27T03:22:41.672Z,2.82
2019-01-27T03:25:12.938Z,2.82
2019-01-27T03:27:43.439Z,2.87
2019-01-27T03:30:17.754Z,2.89
2019-01-27T03:32:48.745Z,3.01
2019-01-27T03:35:19.266Z,2.94
2019-01-27T03:37:49.609Z,2.89
2019-01-27T03:40:20.035Z,2.94
2019-01-27T03:42:50.806Z,2.93
2019-01-27T03:45:21.444Z,2.93
2019-01-27T03:47:52.166Z,2.96
2019-01-27T03:50:22.854Z,2.94
2019-01-27T03:52:53.415Z,2.97
2019-01-27T03:55:23.659Z,2.94
2019-01-27T03:57:54.086Z,2.98
2019-01-27T04:00:24.953Z,2.99
2019-01-27T04:02:55.780Z,2.98
2019-01-27T04:05:26.236Z,3.00
2019-01-27T04:07:56.530Z,3.01
2019-01-27T04:10:26.817Z,3.06
2019-01-27T04:12:57.422Z,3.03
2019-01-27T04:15:27.726Z,3.03
2019-01-27T04:17:58.163Z,2.97
2019-01-27T04:20:28.434Z,2.99
2019-01-27T04:22:58.747Z,2.98
2019-01-27T04:25:29.288Z,3.00
2019-01-27T04:27:59.598Z,2.99
2019-01-27T04:30:32.710Z,3.01
2019-01-27T04:33:03.063Z,3.13
2019-01-27T04:35:33.426Z,3.13
2019-01-27T04:38:03.589Z,3.11
2019-01-27T04:40:33.764Z,3.16
2019-01-27T04:43:04.422Z,3.18
2019-01-27T04:45:40.846Z,3.19
2019-01-27T04:48:11.326Z,3.28
2019-01-27T04:50:41.447Z,3.28
2019-01-27T04:53:11.742Z,3.30
2019-01-27T04:55:42.205Z,3.19
2019-01-27T04:58:12.712Z,3.30
2019-01-27T05:00:43.207Z,3.32
2019-01-27T05:03:31.007Z,3.37
2019-01-27T05:06:01.386Z,3.41
2019-01-27T05:08:31.578Z,3.40
2019-01-27T05:11:01.779Z,3.37
2019-01-27T05:13:32.215Z,3.43
2019-01-27T05:16:02.988Z,3.53
2019-01-27T05:18:33.452Z,3.53
2019-01-27T05:21:03.703Z,3.53
2019-01-27T05:23:34.021Z,3.56
2019-01-27T05:26:04.662Z,3.58
2019-01-27T05:28:35.029Z,3.58
2019-01-27T05:31:05.345Z,3.56
2019-01-27T05:33:35.630Z,3.57
2019-01-27T05:36:06.081Z,3.58
2019-01-27T05:38:36.392Z,3.55
2019-01-27T05:41:06.895Z,3.54
2019-01-27T05:43:37.460Z,3.57
2019-01-27T05:46:07.770Z,3.59
2019-01-27T05:48:38.219Z,3.59
2019-01-27T05:51:08.562Z,3.62
2019-01-27T05:53:38.762Z,3.62
2019-01-27T05:56:09.224Z,3.65
2019-01-27T05:58:39.431Z,3.64
2019-01-27T06:01:09.708Z,3.68
2019-01-27T06:03:40.164Z,3.71
2019-01-27T06:06:10.506Z,3.66
2019-01-27T06:08:41.170Z,3.68
2019-01-27T06:11:11.391Z,3.66
2019-01-27T06:13:41.497Z,3.66
2019-01-27T06:16:12.159Z,3.61
2019-01-27T06:18:43.302Z,3.56
2019-01-27T06:21:13.443Z,3.62
2019-01-27T06:23:43.528Z,3.56
2019-01-27T06:26:13.593Z,3.42
2019-01-27T06:28:43.763Z,3.44
2019-01-27T06:31:14.630Z,3.42
2019-01-27T06:33:49.290Z,3.42
2019-01-27T06:36:19.660Z,3.31
2019-01-27T06:38:49.701Z,3.31
2019-01-27T06:41:20.279Z,3.38
2019-01-27T06:43:51.014Z,3.37
2019-01-27T06:46:21.905Z,3.31
2019-01-27T06:48:52.297Z,3.34
2019-01-27T06:51:22.327Z,3.36
2019-01-27T06:53:52.471Z,3.38
2019-01-27T06:56:23.666Z,3.37
2019-01-27T06:59:16.019Z,3.39
2019-01-27T07:02:05.466Z,3.33
2019-01-27T07:04:40.605Z,3.30
2019-01-27T07:07:16.762Z,3.28
2019-01-27T07:10:06.180Z,3.36
2019-01-27T07:12:41.884Z,3.33
2019-01-27T07:15:30.418Z,3.32
2019-01-27T07:18:25.613Z,3.36
2019-01-27T07:21:26.617Z,3.33
2019-01-27T07:24:18.766Z,3.41
2019-01-27T07:26:58.050Z,3.32
2019-01-27T07:29:47.287Z,3.39
2019-01-27T07:32:51.616Z,3.50
2019-01-27T07:35:39.299Z,3.48
2019-01-27T07:38:31.655Z,3.55
2019-01-27T07:41:20.708Z,3.57
2019-01-27T07:44:10.191Z,3.58
2019-01-27T07:47:01.702Z,3.58
2019-01-27T07:49:49.535Z,3.65
2019-01-27T07:52:38.660Z,3.65
2019-01-27T07:55:33.426Z,3.67
2019-01-27T07:58:37.603Z,3.74
2019-01-27T08:01:23.252Z,3.74
2019-01-27T08:04:03.865Z,3.84
2019-01-27T08:06:53.292Z,3.81
2019-01-27T08:09:42.741Z,3.88
2019-01-27T08:12:38.089Z,3.93
2019-01-27T08:15:30.023Z,4.00
2019-01-27T08:18:19.254Z,4.06
2019-01-27T08:21:20.634Z,4.17
2019-01-27T08:24:24.739Z,4.17
2019-01-27T08:27:16.660Z,4.24
2019-01-27T08:30:05.156Z,4.01
2019-01-27T08:33:00.258Z,4.31
2019-01-27T08:35:41.078Z,4.33
2019-01-27T08:38:20.497Z,4.43
2019-01-27T08:41:15.281Z,4.56
2019-01-27T08:44:01.561Z,4.63
2019-01-27T08:46:40.064Z,4.68
2019-01-27T08:49:10.176Z,4.71
2019-01-27T08:51:41.731Z,4.73
2019-01-27T08:54:12.267Z,4.78
2019-01-27T08:56:42.386Z,4.82
2019-01-27T08:59:12.510Z,4.88
2019-01-27T09:02:04.435Z,4.92
2019-01-27T09:04:48.759Z,4.95
2019-01-27T09:07:50.126Z,4.96
2019-01-27T09:10:42.711Z,4.93
2019-01-27T09:13:40.123Z,4.91
2019-01-27T09:16:25.480Z,4.90
2019-01-27T09:19:13.293Z,4.90
2019-01-27T09:22:05.132Z,4.86
2019-01-27T09:24:45.903Z,4.79
2019-01-27T09:27:35.422Z,4.84
2019-01-27T09:30:32.869Z,4.90
2019-01-27T09:33:16.298Z,4.87
2019-01-27T09:36:11.702Z,4.87
2019-01-27T09:38:54.482Z,4.91
2019-01-27T09:41:46.916Z,4.89
2019-01-27T09:44:34.895Z,4.88
2019-01-27T09:47:31.520Z,4.88
2019-01-27T09:50:23.255Z,4.83
2019-01-27T09:53:03.644Z,4.89
2019-01-27T09:55:52.706Z,4.96
2019-01-27T09:58:45.056Z,5.08
2019-01-27T10:01:25.039Z,5.18
2019-01-27T10:04:29.195Z,5.30
2019-01-27T10:07:18.078Z,5.30
2019-01-27T10:10:12.696Z,5.35
2019-01-27T10:13:07.754Z,5.36
2019-01-27T10:15:55.562Z,5.43
2019-01-27T10:18:50.361Z,5.49
2019-01-27T10:21:27.865Z,5.56
2019-01-27T10:24:21.211Z,5.66
2019-01-27T10:27:05.804Z,5.74
2019-01-27T10:29:56.147Z,5.84
2019-01-27T10:33:03.283Z,5.89
2019-01-27T10:35:51.004Z,5.92
2019-01-27T10:38:45.909Z,6.03
2019-01-27T10:41:43.875Z,6.13
2019-01-27T10:44:48.209Z,6.22
2019-01-27T10:47:36.281Z,6.22
2019-01-27T10:50:31.767Z,6.29
2019-01-27T10:53:20.971Z,6.39
2019-01-27T10:56:10.173Z,6.51
2019-01-27T10:58:56.308Z,6.60
2019-01-27T11:02:00.723Z,6.70
2019-01-27T11:05:03.455Z,6.72
2019-01-27T11:07:50.220Z,6.74
2019-01-27T11:10:45.505Z,6.68
2019-01-27T11:13:34.638Z,6.70
2019-01-27T11:16:39.209Z,6.77
2019-01-27T11:19:23.519Z,6.85
2019-01-27T11:22:11.378Z,6.88
2019-01-27T11:25:09.208Z,6.92
2019-01-27T11:28:13.282Z,6.92
2019-01-27T11:31:04.922Z,6.97
2019-01-27T11:33:42.900Z,7.05
2019-01-27T11:36:33.450Z,7.02
2019-01-27T11:39:25.099Z,7.02
2019-01-27T11:42:12.633Z,6.95
2019-01-27T11:44:54.705Z,6.88
2019-01-27T11:47:43.758Z,6.88
2019-01-27T11:50:42.750Z,6.81
2019-01-27T11:53:13.148Z,6.80
2019-01-27T11:55:43.487Z,6.73
2019-01-27T11:58:13.741Z,6.72
2019-01-27T12:00:48.047Z,6.58
2019-01-27T12:03:18.563Z,6.54
2019-01-27T12:05:48.698Z,6.58
2019-01-27T12:08:19.732Z,6.59
2019-01-27T12:10:50.155Z,6.46
2019-01-27T12:13:20.594Z,6.50
2019-01-27T12:15:50.825Z,6.50
2019-01-27T12:18:21.347Z,6.45
2019-01-27T12:20:51.751Z,6.44
2019-01-27T12:23:22.177Z,6.45
2019-01-27T12:25:53.651Z,6.44
2019-01-27T12:28:24.209Z,6.44
2019-01-27T12:30:54.353Z,6.44
2019-01-27T12:33:24.476Z,6.35
2019-01-27T12:35:54.719Z,6.38
2019-01-27T12:38:25.367Z,6.43
2019-01-27T12:40:55.519Z,6.36
2019-01-27T12:43:25.769Z,6.30
2019-01-27T12:45:56.130Z,6.38
2019-01-27T12:48:26.335Z,6.41
2019-01-27T12:51:01.369Z,6.31
2019-01-27T12:53:31.402Z,6.40
2019-01-27T12:56:01.635Z,6.39
2019-01-27T12:58:31.798Z,6.36
2019-01-27T13:01:06.325Z,6.42
2019-01-27T13:03:36.760Z,6.44
2019-01-27T13:06:07.297Z,6.43
2019-01-27T13:08:37.407Z,6.51
2019-01-27T13:11:09.883Z,6.52
2019-01-27T13:13:40.420Z,6.58
2019-01-27T13:16:10.805Z,6.62
2019-01-27T13:18:41.362Z,6.62
2019-01-27T13:21:11.684Z,6.68
2019-01-27T13:23:41.707Z,6.70
2019-01-27T13:26:12.069Z,6.70
2019-01-27T13:28:42.435Z,6.80
2019-01-27T13:31:12.582Z,6.74
2019-01-27T13:33:42.885Z,6.79
2019-01-27T13:36:13.447Z,6.74
2019-01-27T13:38:50.863Z,6.73
2019-01-27T13:41:17.697Z,6.73
2019-01-27T13:43:48.111Z,6.72
2019-01-27T13:46:18.602Z,6.67
2019-01-27T13:48:48.974Z,6.63
2019-01-27T13:51:19.539Z,6.70
2019-01-27T13:53:49.851Z,6.73
2019-01-27T13:56:20.408Z,6.70
2019-01-27T13:58:50.601Z,6.72
2019-01-27T14:01:21.255Z,6.61
2019-01-27T14:03:51.277Z,6.69
2019-01-27T14:06:21.573Z,6.65
2019-01-27T14:08:51.844Z,6.69
2019-01-27T14:11:22.478Z,6.66
2019-01-27T14:13:52.735Z,6.73
2019-01-27T14:16:23.348Z,6.75
2019-01-27T14:18:53.666Z,6.72
2019-01-27T14:21:24.238Z,6.70
2019-01-27T14:23:54.951Z,6.62
2019-01-27T14:26:25.356Z,6.63
2019-01-27T14:28:55.621Z,6.61
2019-01-27T14:31:25.870Z,6.57
2019-01-27T14:33:56.976Z,6.52
2019-01-27T14:36:27.930Z,6.51
2019-01-27T14:38:58.622Z,6.44
2019-01-27T14:42:15.541Z,6.35
2019-01-27T14:44:48.989Z,6.29
2019-01-27T14:47:21.690Z,6.24
2019-01-27T14:49:53.039Z,6.27
2019-01-27T14:52:23.387Z,6.19
2019-01-27T14:54:54.332Z,6.10
2019-01-27T14:57:24.583Z,6.11
2019-01-27T14:59:54.828Z,6.10
2019-01-27T15:02:25.171Z,6.06
2019-01-27T15:04:55.566Z,5.98
2019-01-27T15:07:25.859Z,5.95
2019-01-27T15:09:56.739Z,5.88
2019-01-27T15:12:27.390Z,5.81
2019-01-27T15:14:57.472Z,5.70
2019-01-27T15:17:27.830Z,5.75
2019-01-27T15:19:58.240Z,5.68
2019-01-27T15:22:28.464Z,5.66
2019-01-27T15:24:58.890Z,5.71
2019-01-27T15:27:29.315Z,5.73
2019-01-27T15:29:59.701Z,5.64
2019-01-27T15:32:30.279Z,5.66
2019-01-27T15:35:00.716Z,5.59
2019-01-27T15:37:31.320Z,5.60
2019-01-27T15:40:01.950Z,5.60
2019-01-27T15:42:33.712Z,5.55
2019-01-27T15:45:04.395Z,5.48
2019-01-27T15:47:34.650Z,5.51
2019-01-27T15:50:05.868Z,5.48
2019-01-27T15:52:36.358Z,5.44
2019-01-27T15:55:10.301Z,5.41
2019-01-27T15:57:40.613Z,5.36
2019-01-27T16:00:15.022Z,5.34
2019-01-27T16:02:45.312Z,5.27
2019-01-27T16:05:17.668Z,5.36
2019-01-27T16:07:47.940Z,5.37
2019-01-27T16:10:21.010Z,5.33
2019-01-27T16:12:52.647Z,5.18
2019-01-27T16:15:25.485Z,5.23
2019-01-27T16:18:04.619Z,5.22
2019-01-27T16:20:34.917Z,5.28
2019-01-27T16:23:22.389Z,5.30
2019-01-27T16:25:52.675Z,5.24
2019-01-27T16:28:23.169Z,5.31
2019-01-27T16:31:18.592Z,5.27
2019-01-27T16:33:56.628Z,5.23
2019-01-27T16:36:38.157Z,5.20
2019-01-27T16:39:12.419Z,5.14
2019-01-27T16:41:43.766Z,5.17
2019-01-27T16:44:14.362Z,5.17
2019-01-27T16:46:44.745Z,5.14
2019-01-27T16:49:16.785Z,5.17
2019-01-27T16:51:49.115Z,5.15
2019-01-27T16:54:19.448Z,5.20
2019-01-27T16:56:51.030Z,5.21
2019-01-27T16:59:21.451Z,5.16
2019-01-27T17:01:51.615Z,5.13
2019-01-27T17:04:21.787Z,5.17
2019-01-27T17:06:52.295Z,5.19
2019-01-27T17:09:22.653Z,5.30
2019-01-27T17:11:53.310Z,5.64
2019-01-27T17:14:23.875Z,5.70
2019-01-27T17:16:54.407Z,6.07
2019-01-27T18:11:02.664Z,24.00
2019-01-27T18:32:50.012Z,24.65
2019-01-27T18:35:36.284Z,24.83
2019-01-27T19:36:34.999Z,24.30
2019-01-27T20:05:14.407Z,22.88
2019-01-27T20:08:03.618Z,18.06
2019-01-27T20:10:51.777Z,13.99
2019-01-27T20:13:40.040Z,12.25
2019-01-27T20:16:35.609Z,10.33
2019-01-27T20:19:19.099Z,9.02
2019-01-27T20:22:02.136Z,7.29
2019-01-27T20:25:00.606Z,7.26
2019-01-27T20:27:49.689Z,6.81
2019-01-27T20:30:50.725Z,6.10
2019-01-27T20:33:45.375Z,5.88
2019-01-27T20:36:40.520Z,5.73
2019-01-27T20:39:35.501Z,5.34
2019-01-27T20:42:25.253Z,5.30
2019-01-27T20:45:18.699Z,5.37
2019-01-27T20:48:11.497Z,5.03
2019-01-27T20:51:06.144Z,4.89
2019-01-27T20:53:58.163Z,4.71
2019-01-27T20:56:47.391Z,4.60
2019-01-27T20:59:34.954Z,4.52
2019-01-27T21:02:26.214Z,4.51
2019-01-27T21:05:21.208Z,4.52
2019-01-27T21:08:05.982Z,4.45
2019-01-27T21:10:55.284Z,4.38
2019-01-27T21:13:31.888Z,4.38
2019-01-27T21:16:19.822Z,4.29
2019-01-27T21:18:58.500Z,4.24
2019-01-27T21:21:38.817Z,4.20
2019-01-27T21:28:37.670Z,4.13
2019-01-27T21:29:29.725Z,4.13
2019-01-27T21:32:03.844Z,4.13
2019-01-27T21:38:59.219Z,4.12
2019-01-27T21:39:53.136Z,4.11
2019-01-27T21:42:23.990Z,4.08
2019-01-27T21:44:56.049Z,4.09
2019-01-27T21:47:28.764Z,4.06
2019-01-27T21:49:59.331Z,4.01
2019-01-27T21:52:30.010Z,3.95
2019-01-27T21:55:00.429Z,3.96
2019-01-27T21:57:30.622Z,3.97
2019-01-27T22:00:01.110Z,4.03
2019-01-27T22:02:32.183Z,3.97
2019-01-27T22:05:02.692Z,3.98
2019-01-27T22:07:30.721Z,3.93
2019-01-27T22:09:58.668Z,3.91
2019-01-27T22:12:26.601Z,3.88
2019-01-27T22:14:54.522Z,3.90
2019-01-27T22:17:22.443Z,3.84
2019-01-27T22:21:37.791Z,3.85
2019-01-27T22:24:05.685Z,3.80
2019-01-27T22:27:26.331Z,3.78
2019-01-27T22:29:54.917Z,3.69
2019-01-27T22:32:22.943Z,3.75
2019-01-27T22:34:50.790Z,3.75
2019-01-27T22:37:18.866Z,3.77
2019-01-27T22:39:48.814Z,3.71
2019-01-27T22:42:17.295Z,3.72
2019-01-27T22:44:47.117Z,3.75
2019-01-27T22:47:15.575Z,3.72
2019-01-27T22:49:44.663Z,3.75
2019-01-27T22:52:12.714Z,3.70
2019-01-27T22:54:40.594Z,3.66
2019-01-27T22:57:08.532Z,3.74
2019-01-27T22:59:36.468Z,3.76
2019-01-27T23:02:05.186Z,3.74
2019-01-27T23:04:33.189Z,3.70
2019-01-27T23:07:01.570Z,3.70
2019-01-27T23:09:29.654Z,3.65
2019-01-27T23:11:57.644Z,3.73
2019-01-27T23:14:25.692Z,3.75
2019-01-27T23:16:53.940Z,3.71
2019-01-27T23:19:21.924Z,3.68
2019-01-27T23:21:49.872Z,3.73
2019-01-27T23:24:17.782Z,3.77
2019-01-27T23:26:45.907Z,3.77
2019-01-27T23:30:45.317Z,3.76
2019-01-27T23:33:13.288Z,3.80
2019-01-27T23:35:41.177Z,3.75
2019-01-27T23:38:09.767Z,3.81
2019-01-27T23:40:37.801Z,3.78
2019-01-27T23:43:06.131Z,3.77
2019-01-27T23:45:34.298Z,3.82
2019-01-27T23:48:05.027Z,3.84
2019-01-27T23:50:33.039Z,3.86
2019-01-27T23:53:01.752Z,3.78
2019-01-27T23:55:29.667Z,3.81
2019-01-27T23:57:57.702Z,3.81
